sensor_id;sensor_type;location;lat;lon;timestamp;pressure;altitude;pressure_sealevel;temperature;humidity
47154;BME280;32907;41.412;2.164;2022-12-08T00:01:33;100022.91;;;19.58;47.54
47154;BME280;32907;41.412;2.164;2022-12-08T00:04:02;100018.28;;;19.59;47.13
47154;BME280;32907;41.412;2.164;2022-12-08T00:06:41;99977.31;;;19.36;47.59
47154;BME280;32907;41.412;2.164;2022-12-08T00:09:35;100037.63;;;19.71;47.41
47154;BME280;32907;41.412;2.164;2022-12-08T00:12:08;100038.41;;;19.71;47.31
47154;BME280;32907;41.412;2.164;2022-12-08T00:14:41;100028.66;;;19.70;46.79
47154;BME280;32907;41.412;2.164;2022-12-08T00:17:11;99971.53;;;19.24;46.96
47154;BME280;32907;41.412;2.164;2022-12-08T00:19:40;100026.94;;;19.61;47.29
47154;BME280;32907;41.412;2.164;2022-12-08T00:22:10;100025.91;;;19.56;47.20
47154;BME280;32907;41.412;2.164;2022-12-08T00:24:39;100027.53;;;19.58;46.88
47154;BME280;32907;41.412;2.164;2022-12-08T00:27:08;100024.25;;;19.55;46.99
47154;BME280;32907;41.412;2.164;2022-12-08T00:29:36;100014.38;;;19.46;47.09
47154;BME280;32907;41.412;2.164;2022-12-08T00:32:05;100005.50;;;19.40;47.05
47154;BME280;32907;41.412;2.164;2022-12-08T00:34:33;100020.84;;;19.50;47.07
47154;BME280;32907;41.412;2.164;2022-12-08T00:37:01;99963.88;;;19.12;47.19
47154;BME280;32907;41.412;2.164;2022-12-08T00:39:28;100007.53;;;19.35;47.12
47154;BME280;32907;41.412;2.164;2022-12-08T00:41:56;99989.19;;;19.26;46.97
47154;BME280;32907;41.412;2.164;2022-12-08T00:44:41;100003.88;;;19.39;46.86
47154;BME280;32907;41.412;2.164;2022-12-08T00:47:11;100004.91;;;19.43;47.01
47154;BME280;32907;41.412;2.164;2022-12-08T00:49:39;100014.38;;;19.46;46.65
47154;BME280;32907;41.412;2.164;2022-12-08T00:52:07;100010.56;;;19.47;46.80
47154;BME280;32907;41.412;2.164;2022-12-08T00:54:35;100003.09;;;19.39;46.95
47154;BME280;32907;41.412;2.164;2022-12-08T00:57:06;99925.28;;;18.96;46.72
47154;BME280;32907;41.412;2.164;2022-12-08T00:59:34;99972.19;;;19.35;46.69
47154;BME280;32907;41.412;2.164;2022-12-08T01:02:01;99974.28;;;19.38;46.74
47154;BME280;32907;41.412;2.164;2022-12-08T01:04:29;99959.78;;;19.28;46.55
47154;BME280;32907;41.412;2.164;2022-12-08T01:06:57;99985.28;;;19.46;46.53
47154;BME280;32907;41.412;2.164;2022-12-08T01:09:25;99975.47;;;19.32;46.21
47154;BME280;32907;41.412;2.164;2022-12-08T01:11:52;99991.63;;;19.42;46.06
47154;BME280;32907;41.412;2.164;2022-12-08T01:14:20;99982.53;;;19.33;46.26
47154;BME280;32907;41.412;2.164;2022-12-08T01:16:48;99989.72;;;19.42;45.96
47154;BME280;32907;41.412;2.164;2022-12-08T01:19:16;99915.84;;;18.94;46.16
47154;BME280;32907;41.412;2.164;2022-12-08T01:21:44;99985.66;;;19.40;46.16
47154;BME280;32907;41.412;2.164;2022-12-08T01:24:16;99986.19;;;19.42;46.32
47154;BME280;32907;41.412;2.164;2022-12-08T01:26:46;99925.50;;;19.00;46.29
47154;BME280;32907;41.412;2.164;2022-12-08T01:29:14;99960.47;;;19.20;45.93
47154;BME280;32907;41.412;2.164;2022-12-08T01:31:42;99984.34;;;19.37;45.91
47154;BME280;32907;41.412;2.164;2022-12-08T01:34:11;99966.81;;;19.29;46.25
47154;BME280;32907;41.412;2.164;2022-12-08T01:36:39;99931.44;;;19.02;46.10
47154;BME280;32907;41.412;2.164;2022-12-08T01:39:12;99986.28;;;19.37;46.56
47154;BME280;32907;41.412;2.164;2022-12-08T01:41:42;99968.44;;;19.31;46.23
47154;BME280;32907;41.412;2.164;2022-12-08T01:46:42;99973.28;;;19.34;46.59
47154;BME280;32907;41.412;2.164;2022-12-08T01:49:11;99970.25;;;19.35;46.51
47154;BME280;32907;41.412;2.164;2022-12-08T01:51:51;99908.78;;;18.93;46.71
47154;BME280;32907;41.412;2.164;2022-12-08T01:54:23;99918.75;;;18.97;46.39
47154;BME280;32907;41.412;2.164;2022-12-08T01:57:08;99934.88;;;19.08;46.33
47154;BME280;32907;41.412;2.164;2022-12-08T01:59:43;99959.78;;;19.28;46.56
47154;BME280;32907;41.412;2.164;2022-12-08T02:02:13;99955.03;;;19.20;46.48
47154;BME280;32907;41.412;2.164;2022-12-08T02:04:40;99942.94;;;19.13;46.50
47154;BME280;32907;41.412;2.164;2022-12-08T02:07:09;99971.16;;;19.31;46.53
47154;BME280;32907;41.412;2.164;2022-12-08T02:09:39;99977.69;;;19.29;46.56
47154;BME280;32907;41.412;2.164;2022-12-08T02:12:09;99964.84;;;19.35;46.65
47154;BME280;32907;41.412;2.164;2022-12-08T02:14:38;99913.75;;;19.05;46.28
47154;BME280;32907;41.412;2.164;2022-12-08T02:39:26;99961.38;;;19.29;45.62
47154;BME280;32907;41.412;2.164;2022-12-08T02:42:04;99926.53;;;19.04;46.09
47154;BME280;32907;41.412;2.164;2022-12-08T02:47:11;99840.97;;;18.55;45.68
47154;BME280;32907;41.412;2.164;2022-12-08T02:49:39;99944.78;;;19.17;46.06
47154;BME280;32907;41.412;2.164;2022-12-08T02:54:49;99952.13;;;19.31;45.71
47154;BME280;32907;41.412;2.164;2022-12-08T03:05:54;99905.59;;;19.05;46.17
47154;BME280;32907;41.412;2.164;2022-12-08T03:08:54;99860.16;;;18.78;45.75
47154;BME280;32907;41.412;2.164;2022-12-08T03:11:28;99936.31;;;19.33;45.92
47154;BME280;32907;41.412;2.164;2022-12-08T03:14:00;99928.78;;;19.29;45.91
47154;BME280;32907;41.412;2.164;2022-12-08T03:16:33;99930.00;;;19.37;45.99
47154;BME280;32907;41.412;2.164;2022-12-08T03:19:18;99926.97;;;19.39;45.71
47154;BME280;32907;41.412;2.164;2022-12-08T03:21:57;99925.97;;;19.35;45.70
47154;BME280;32907;41.412;2.164;2022-12-08T03:24:36;99887.38;;;19.05;45.33
47154;BME280;32907;41.412;2.164;2022-12-08T03:27:09;99847.97;;;18.75;45.46
47154;BME280;32907;41.412;2.164;2022-12-08T03:29:38;99897.94;;;19.07;45.42
47154;BME280;32907;41.412;2.164;2022-12-08T03:32:15;99912.97;;;19.18;45.73
47154;BME280;32907;41.412;2.164;2022-12-08T03:34:47;99929.88;;;19.28;45.92
47154;BME280;32907;41.412;2.164;2022-12-08T03:37:16;99919.31;;;19.27;45.33
47154;BME280;32907;41.412;2.164;2022-12-08T03:39:44;99911.06;;;19.18;45.46
47154;BME280;32907;41.412;2.164;2022-12-08T03:42:13;99863.28;;;18.85;45.65
47154;BME280;32907;41.412;2.164;2022-12-08T03:44:41;99843.25;;;18.81;45.45
47154;BME280;32907;41.412;2.164;2022-12-08T03:47:09;99869.53;;;18.99;45.51
47154;BME280;32907;41.412;2.164;2022-12-08T03:49:36;99861.31;;;19.04;45.47
47154;BME280;32907;41.412;2.164;2022-12-08T03:52:04;99888.06;;;19.24;45.30
47154;BME280;32907;41.412;2.164;2022-12-08T03:54:32;99877.63;;;19.18;45.77
47154;BME280;32907;41.412;2.164;2022-12-08T03:57:00;99796.25;;;18.66;45.79
47154;BME280;32907;41.412;2.164;2022-12-08T03:59:28;99886.19;;;19.25;45.74
47154;BME280;32907;41.412;2.164;2022-12-08T04:01:55;99884.88;;;19.22;45.75
47154;BME280;32907;41.412;2.164;2022-12-08T04:04:23;99812.69;;;18.89;45.76
47154;BME280;32907;41.412;2.164;2022-12-08T04:06:51;99867.97;;;19.25;45.75
47154;BME280;32907;41.412;2.164;2022-12-08T04:09:19;99839.25;;;19.06;45.83
47154;BME280;32907;41.412;2.164;2022-12-08T04:11:46;99830.38;;;19.00;45.68
47154;BME280;32907;41.412;2.164;2022-12-08T04:14:14;99844.38;;;19.07;45.94
47154;BME280;32907;41.412;2.164;2022-12-08T04:16:42;99841.19;;;19.05;45.82
47154;BME280;32907;41.412;2.164;2022-12-08T04:19:09;99870.16;;;19.23;45.89
47154;BME280;32907;41.412;2.164;2022-12-08T04:21:37;99859.91;;;19.20;45.77
47154;BME280;32907;41.412;2.164;2022-12-08T04:24:05;99862.00;;;19.23;45.61
47154;BME280;32907;41.412;2.164;2022-12-08T04:26:33;99850.22;;;19.14;45.94
47154;BME280;32907;41.412;2.164;2022-12-08T04:29:01;99865.25;;;19.25;45.61
47154;BME280;32907;41.412;2.164;2022-12-08T04:31:29;99823.47;;;18.94;45.52
47154;BME280;32907;41.412;2.164;2022-12-08T04:33:57;99836.94;;;18.99;45.53
47154;BME280;32907;41.412;2.164;2022-12-08T04:36:25;99834.34;;;18.94;45.18
47154;BME280;32907;41.412;2.164;2022-12-08T04:38:53;99837.84;;;18.94;44.97
47154;BME280;32907;41.412;2.164;2022-12-08T04:41:20;99814.88;;;18.73;44.99
47154;BME280;32907;41.412;2.164;2022-12-08T04:43:50;99866.84;;;19.13;45.04
47154;BME280;32907;41.412;2.164;2022-12-08T04:46:18;99838.97;;;18.93;45.12
47154;BME280;32907;41.412;2.164;2022-12-08T04:48:46;99838.53;;;19.00;45.27
47154;BME280;32907;41.412;2.164;2022-12-08T04:51:15;99870.28;;;19.18;45.17
47154;BME280;32907;41.412;2.164;2022-12-08T04:53:44;99860.38;;;19.09;45.03
47154;BME280;32907;41.412;2.164;2022-12-08T04:56:14;99874.38;;;19.16;45.11
47154;BME280;32907;41.412;2.164;2022-12-08T04:58:43;99880.34;;;19.18;45.23
47154;BME280;32907;41.412;2.164;2022-12-08T05:01:11;99879.81;;;19.16;44.86
47154;BME280;32907;41.412;2.164;2022-12-08T05:03:39;99820.50;;;18.77;44.54
47154;BME280;32907;41.412;2.164;2022-12-08T05:06:10;99824.84;;;18.78;44.65
47154;BME280;32907;41.412;2.164;2022-12-08T05:08:39;99854.03;;;18.99;44.84
47154;BME280;32907;41.412;2.164;2022-12-08T05:11:09;99858.38;;;19.00;44.54
47154;BME280;32907;41.412;2.164;2022-12-08T05:13:37;99838.56;;;18.86;44.75
47154;BME280;32907;41.412;2.164;2022-12-08T05:16:12;99837.44;;;18.87;44.61
47154;BME280;32907;41.412;2.164;2022-12-08T05:18:42;99849.41;;;19.00;44.98
47154;BME280;32907;41.412;2.164;2022-12-08T05:21:11;99854.03;;;18.99;44.84
47154;BME280;32907;41.412;2.164;2022-12-08T05:23:39;99853.25;;;18.99;44.84
47154;BME280;32907;41.412;2.164;2022-12-08T05:26:06;99779.09;;;18.52;44.91
47154;BME280;32907;41.412;2.164;2022-12-08T05:28:34;99850.91;;;18.92;45.28
47154;BME280;32907;41.412;2.164;2022-12-08T05:31:12;99800.44;;;18.59;45.21
47154;BME280;32907;41.412;2.164;2022-12-08T05:33:41;99850.91;;;18.92;45.13
47154;BME280;32907;41.412;2.164;2022-12-08T05:36:12;99851.81;;;18.88;45.33
47154;BME280;32907;41.412;2.164;2022-12-08T05:38:40;99844.78;;;18.87;45.49
47154;BME280;32907;41.412;2.164;2022-12-08T05:41:15;99784.03;;;18.50;45.26
47154;BME280;32907;41.412;2.164;2022-12-08T05:43:44;99843.69;;;18.88;45.68
47154;BME280;32907;41.412;2.164;2022-12-08T05:46:13;99843.97;;;18.86;45.50
47154;BME280;32907;41.412;2.164;2022-12-08T05:48:41;99843.19;;;18.86;45.53
47154;BME280;32907;41.412;2.164;2022-12-08T05:51:20;99833.13;;;18.86;45.57
47154;BME280;32907;41.412;2.164;2022-12-08T05:53:49;99835.59;;;18.83;45.87
47154;BME280;32907;41.412;2.164;2022-12-08T05:56:19;99854.47;;;18.93;46.01
47154;BME280;32907;41.412;2.164;2022-12-08T05:58:48;99745.28;;;18.31;46.21
47154;BME280;32907;41.412;2.164;2022-12-08T06:01:25;99805.50;;;18.65;46.08
47154;BME280;32907;41.412;2.164;2022-12-08T06:03:55;99867.34;;;19.01;46.68
47154;BME280;32907;41.412;2.164;2022-12-08T06:06:23;99853.34;;;18.94;46.79
47154;BME280;32907;41.412;2.164;2022-12-08T06:08:52;99824.31;;;18.76;46.44
47154;BME280;32907;41.412;2.164;2022-12-08T06:11:24;99867.25;;;19.06;46.46
47154;BME280;32907;41.412;2.164;2022-12-08T06:13:52;99829.59;;;18.86;46.51
47154;BME280;32907;41.412;2.164;2022-12-08T06:16:21;99864.22;;;19.08;46.50
47154;BME280;32907;41.412;2.164;2022-12-08T06:18:49;99885.56;;;19.14;45.99
47154;BME280;32907;41.412;2.164;2022-12-08T06:21:17;99811.34;;;18.72;46.13
47154;BME280;32907;41.412;2.164;2022-12-08T06:23:47;99883.34;;;19.16;45.95
47154;BME280;32907;41.412;2.164;2022-12-08T06:26:16;99818.81;;;18.81;46.21
47154;BME280;32907;41.412;2.164;2022-12-08T06:28:44;99819.22;;;18.88;46.25
47154;BME280;32907;41.412;2.164;2022-12-08T06:31:21;99856.69;;;19.18;46.56
47154;BME280;32907;41.412;2.164;2022-12-08T06:33:51;99757.53;;;18.61;46.81
47154;BME280;32907;41.412;2.164;2022-12-08T06:36:22;99869.38;;;19.37;46.36
47154;BME280;32907;41.412;2.164;2022-12-08T06:38:50;99873.91;;;19.27;45.89
47154;BME280;32907;41.412;2.164;2022-12-08T06:41:20;99826.28;;;19.03;46.77
47154;BME280;32907;41.412;2.164;2022-12-08T06:43:48;99835.94;;;19.09;46.37
47154;BME280;32907;41.412;2.164;2022-12-08T06:46:18;99874.00;;;19.36;45.99
47154;BME280;32907;41.412;2.164;2022-12-08T06:48:46;99850.56;;;19.26;46.40
47154;BME280;32907;41.412;2.164;2022-12-08T06:51:19;99830.22;;;19.10;46.15
47154;BME280;32907;41.412;2.164;2022-12-08T06:53:50;99807.06;;;19.13;46.18
47154;BME280;32907;41.412;2.164;2022-12-08T06:56:18;99813.22;;;19.18;46.29
47154;BME280;32907;41.412;2.164;2022-12-08T06:58:47;99813.63;;;19.25;46.28
47154;BME280;32907;41.412;2.164;2022-12-08T07:01:19;99819.03;;;19.25;46.29
47154;BME280;32907;41.412;2.164;2022-12-08T07:03:47;99825.47;;;19.29;46.34
47154;BME280;32907;41.412;2.164;2022-12-08T07:06:22;99803.03;;;19.24;46.20
47154;BME280;32907;41.412;2.164;2022-12-08T07:08:50;99814.59;;;19.29;46.09
47154;BME280;32907;41.412;2.164;2022-12-08T07:11:18;99838.44;;;19.46;46.22
47154;BME280;32907;41.412;2.164;2022-12-08T07:13:49;99854.84;;;19.55;46.13
47154;BME280;32907;41.412;2.164;2022-12-08T07:16:17;99793.47;;;19.13;46.16
47154;BME280;32907;41.412;2.164;2022-12-08T07:18:45;99818.81;;;19.36;46.31
47154;BME280;32907;41.412;2.164;2022-12-08T07:21:13;99825.97;;;19.32;46.33
47154;BME280;32907;41.412;2.164;2022-12-08T07:23:44;99844.59;;;19.52;46.64
47154;BME280;32907;41.412;2.164;2022-12-08T07:26:12;99843.56;;;19.48;47.20
47154;BME280;32907;41.412;2.164;2022-12-08T07:28:41;99778.06;;;19.08;47.01
47154;BME280;32907;41.412;2.164;2022-12-08T07:31:20;99846.41;;;19.43;46.87
47154;BME280;32907;41.412;2.164;2022-12-08T07:34:04;99777.38;;;19.03;46.81
47154;BME280;32907;41.412;2.164;2022-12-08T07:36:32;99801.53;;;19.18;46.55
47154;BME280;32907;41.412;2.164;2022-12-08T07:39:00;99834.53;;;19.39;46.48
47154;BME280;32907;41.412;2.164;2022-12-08T07:41:27;99846.09;;;19.44;46.54
47154;BME280;32907;41.412;2.164;2022-12-08T07:43:56;99848.22;;;19.47;46.65
47154;BME280;32907;41.412;2.164;2022-12-08T07:46:25;99859.41;;;19.46;46.70
47154;BME280;32907;41.412;2.164;2022-12-08T07:48:53;99858.28;;;19.47;46.52
47154;BME280;32907;41.412;2.164;2022-12-08T07:51:22;99831.72;;;19.30;46.18
47154;BME280;32907;41.412;2.164;2022-12-08T07:53:51;99858.28;;;19.47;46.94
47154;BME280;32907;41.412;2.164;2022-12-08T07:56:22;99814.69;;;19.24;46.48
47154;BME280;32907;41.412;2.164;2022-12-08T07:58:50;99844.59;;;19.52;46.58
47154;BME280;32907;41.412;2.164;2022-12-08T08:01:29;99861.91;;;19.56;46.65
47154;BME280;32907;41.412;2.164;2022-12-08T08:03:59;99783.91;;;19.15;46.66
47154;BME280;32907;41.412;2.164;2022-12-08T08:06:33;99850.63;;;19.63;46.60
47154;BME280;32907;41.412;2.164;2022-12-08T08:09:01;99855.50;;;19.66;46.74
47154;BME280;32907;41.412;2.164;2022-12-08T08:11:29;99843.09;;;19.60;46.67
47154;BME280;32907;41.412;2.164;2022-12-08T08:14:02;99858.09;;;19.71;46.57
47154;BME280;32907;41.412;2.164;2022-12-08T08:16:29;99851.97;;;19.65;46.87
47154;BME280;32907;41.412;2.164;2022-12-08T08:19:04;99857.69;;;19.64;46.84
47154;BME280;32907;41.412;2.164;2022-12-08T08:21:32;99866.97;;;19.63;47.00
47154;BME280;32907;41.412;2.164;2022-12-08T08:24:13;99857.38;;;19.51;46.91
47154;BME280;32907;41.412;2.164;2022-12-08T08:26:41;99838.56;;;19.41;47.04
47154;BME280;32907;41.412;2.164;2022-12-08T08:29:09;99804.94;;;19.23;46.72
47154;BME280;32907;41.412;2.164;2022-12-08T08:31:37;99839.97;;;19.52;46.54
47154;BME280;32907;41.412;2.164;2022-12-08T08:34:04;99810.97;;;19.34;46.66
47154;BME280;32907;41.412;2.164;2022-12-08T08:36:37;99815.19;;;19.40;46.74
47154;BME280;32907;41.412;2.164;2022-12-08T08:39:06;99841.81;;;19.57;46.98
47154;BME280;32907;41.412;2.164;2022-12-08T08:41:34;99824.84;;;19.46;47.22
47154;BME280;32907;41.412;2.164;2022-12-08T08:44:02;99840.06;;;19.61;47.26
47154;BME280;32907;41.412;2.164;2022-12-08T08:46:30;99831.09;;;19.61;47.29
47154;BME280;32907;41.412;2.164;2022-12-08T08:48:59;99771.72;;;19.26;47.44
47154;BME280;32907;41.412;2.164;2022-12-08T08:51:27;99806.53;;;19.52;47.40
47154;BME280;32907;41.412;2.164;2022-12-08T08:53:55;99767.41;;;19.25;47.53
47154;BME280;32907;41.412;2.164;2022-12-08T08:56:23;99826.88;;;19.68;47.42
47154;BME280;32907;41.412;2.164;2022-12-08T08:58:52;99767.78;;;19.33;47.46
47154;BME280;32907;41.412;2.164;2022-12-08T09:01:22;99781.56;;;19.50;47.71
47154;BME280;32907;41.412;2.164;2022-12-08T09:03:56;99811.84;;;19.71;47.79
47154;BME280;32907;41.412;2.164;2022-12-08T09:06:25;99804.41;;;19.63;48.39
47154;BME280;32907;41.412;2.164;2022-12-08T09:08:55;99767.66;;;19.38;47.83
47154;BME280;32907;41.412;2.164;2022-12-08T09:11:23;99806.31;;;19.62;48.19
47154;BME280;32907;41.412;2.164;2022-12-08T09:13:52;99826.44;;;19.75;48.35
47154;BME280;32907;41.412;2.164;2022-12-08T09:16:20;99811.28;;;19.60;48.19
47154;BME280;32907;41.412;2.164;2022-12-08T09:18:49;99800.41;;;19.60;48.23
47154;BME280;32907;41.412;2.164;2022-12-08T09:21:22;99834.69;;;19.83;48.39
47154;BME280;32907;41.412;2.164;2022-12-08T09:23:56;99821.19;;;19.78;48.13
47154;BME280;32907;41.412;2.164;2022-12-08T09:26:26;99787.97;;;19.54;48.08
47154;BME280;32907;41.412;2.164;2022-12-08T09:28:55;99820.38;;;19.78;48.23
47154;BME280;32907;41.412;2.164;2022-12-08T09:31:23;99832.94;;;19.88;48.43
47154;BME280;32907;41.412;2.164;2022-12-08T09:33:52;99829.13;;;19.89;48.43
47154;BME280;32907;41.412;2.164;2022-12-08T09:36:20;99792.63;;;19.67;48.73
47154;BME280;32907;41.412;2.164;2022-12-08T09:38:48;99799.19;;;19.66;48.93
47154;BME280;32907;41.412;2.164;2022-12-08T09:41:41;99836.19;;;19.90;49.14
47154;BME280;32907;41.412;2.164;2022-12-08T09:47:05;99824.69;;;19.93;49.31
47154;BME280;32907;41.412;2.164;2022-12-08T09:49:42;99815.03;;;19.87;49.69
47154;BME280;32907;41.412;2.164;2022-12-08T09:52:21;99773.69;;;19.62;49.41
47154;BME280;32907;41.412;2.164;2022-12-08T09:54:50;99804.03;;;19.92;49.46
47154;BME280;32907;41.412;2.164;2022-12-08T09:57:22;99814.66;;;20.02;49.87
47154;BME280;32907;41.412;2.164;2022-12-08T09:59:58;99778.28;;;19.75;49.72
47154;BME280;32907;41.412;2.164;2022-12-08T10:02:31;99788.81;;;19.91;49.47
47154;BME280;32907;41.412;2.164;2022-12-08T10:04:59;99815.69;;;20.06;49.30
47154;BME280;32907;41.412;2.164;2022-12-08T10:07:47;99815.69;;;20.06;49.16
47154;BME280;32907;41.412;2.164;2022-12-08T10:10:38;99763.38;;;19.73;49.26
47154;BME280;32907;41.412;2.164;2022-12-08T10:13:25;99768.81;;;19.73;49.43
47154;BME280;32907;41.412;2.164;2022-12-08T10:16:22;99812.25;;;20.00;50.26
47154;BME280;32907;41.412;2.164;2022-12-08T10:19:16;99792.22;;;19.96;50.10
47154;BME280;32907;41.412;2.164;2022-12-08T10:21:46;99750.88;;;19.72;49.61
47154;BME280;32907;41.412;2.164;2022-12-08T10:24:19;99801.06;;;20.02;49.01
47154;BME280;32907;41.412;2.164;2022-12-08T10:26:52;99783.56;;;19.94;48.42
47154;BME280;32907;41.412;2.164;2022-12-08T10:29:21;99799.94;;;20.03;48.32
47154;BME280;32907;41.412;2.164;2022-12-08T10:31:48;99740.34;;;19.56;48.12
47154;BME280;32907;41.412;2.164;2022-12-08T10:34:18;99801.19;;;19.97;48.30
47154;BME280;32907;41.412;2.164;2022-12-08T10:36:53;99783.25;;;19.96;48.16
47154;BME280;32907;41.412;2.164;2022-12-08T10:39:39;99791.91;;;19.98;48.39
47154;BME280;32907;41.412;2.164;2022-12-08T10:44:54;99778.81;;;20.00;48.39
47154;BME280;32907;41.412;2.164;2022-12-08T10:47:26;99729.13;;;19.72;48.33
47154;BME280;32907;41.412;2.164;2022-12-08T10:50:18;99778.81;;;20.00;48.21
47154;BME280;32907;41.412;2.164;2022-12-08T10:52:56;99763.72;;;19.94;48.26
47154;BME280;32907;41.412;2.164;2022-12-08T10:55:26;99765.31;;;19.95;48.06
47154;BME280;32907;41.412;2.164;2022-12-08T10:57:55;99776.56;;;20.02;48.17
47154;BME280;32907;41.412;2.164;2022-12-08T11:00:25;99735.75;;;19.79;48.26
47154;BME280;32907;41.412;2.164;2022-12-08T11:03:03;99769.53;;;20.01;48.40
47154;BME280;32907;41.412;2.164;2022-12-08T11:05:33;99752.34;;;19.92;48.43
47154;BME280;32907;41.412;2.164;2022-12-08T11:08:03;99759.44;;;20.01;49.26
47154;BME280;32907;41.412;2.164;2022-12-08T11:10:43;99765.69;;;20.02;50.73
47154;BME280;32907;41.412;2.164;2022-12-08T11:13:24;99761.84;;;20.03;51.10
47154;BME280;32907;41.412;2.164;2022-12-08T11:15:55;99756.59;;;20.06;50.46
47154;BME280;32907;41.412;2.164;2022-12-08T11:18:29;99738.31;;;19.98;50.85
47154;BME280;32907;41.412;2.164;2022-12-08T11:21:10;99745.41;;;20.08;51.84
47154;BME280;32907;41.412;2.164;2022-12-08T11:23:40;99743.16;;;20.10;50.74
47154;BME280;32907;41.412;2.164;2022-12-08T11:26:25;99743.16;;;20.10;50.44
47154;BME280;32907;41.412;2.164;2022-12-08T11:28:54;99720.81;;;19.91;50.80
47154;BME280;32907;41.412;2.164;2022-12-08T11:31:31;99728.69;;;20.01;52.05
47154;BME280;32907;41.412;2.164;2022-12-08T11:34:02;99659.69;;;19.52;52.33
47154;BME280;32907;41.412;2.164;2022-12-08T11:36:32;99721.97;;;19.98;52.27
47154;BME280;32907;41.412;2.164;2022-12-08T11:39:03;99723.09;;;19.97;53.19
47154;BME280;32907;41.412;2.164;2022-12-08T11:41:38;99687.91;;;19.78;53.05
47154;BME280;32907;41.412;2.164;2022-12-08T11:47:11;99675.78;;;19.84;51.95
47154;BME280;32907;41.412;2.164;2022-12-08T11:49:37;99706.81;;;20.06;51.81
47154;BME280;32907;41.412;2.164;2022-12-08T11:57:43;99655.50;;;19.91;51.08
47154;BME280;32907;41.412;2.164;2022-12-08T12:00:13;99646.53;;;19.90;51.02
47154;BME280;32907;41.412;2.164;2022-12-08T12:02:45;99683.78;;;20.12;51.33
47154;BME280;32907;41.412;2.164;2022-12-08T12:05:39;99669.19;;;20.08;51.57
47154;BME280;32907;41.412;2.164;2022-12-08T12:11:41;99626.81;;;19.84;52.18
47154;BME280;32907;41.412;2.164;2022-12-08T12:17:31;99647.69;;;19.98;52.38
47154;BME280;32907;41.412;2.164;2022-12-08T12:20:13;99587.63;;;19.63;51.73
47154;BME280;32907;41.412;2.164;2022-12-08T12:22:45;99640.94;;;19.95;52.10
47154;BME280;32907;41.412;2.164;2022-12-08T12:25:20;99571.88;;;19.51;52.27
47154;BME280;32907;41.412;2.164;2022-12-08T12:27:51;99616.69;;;19.76;52.54
47154;BME280;32907;41.412;2.164;2022-12-08T12:30:25;99623.28;;;19.84;52.70
47154;BME280;32907;41.412;2.164;2022-12-08T12:32:57;99601.59;;;19.70;53.02
47154;BME280;32907;41.412;2.164;2022-12-08T12:35:34;99611.59;;;19.83;53.24
47154;BME280;32907;41.412;2.164;2022-12-08T12:38:06;99617.41;;;19.91;52.98
47154;BME280;32907;41.412;2.164;2022-12-08T12:41:00;99614.19;;;19.89;53.06
47154;BME280;32907;41.412;2.164;2022-12-08T12:43:34;99610.16;;;19.86;52.91
47154;BME280;32907;41.412;2.164;2022-12-08T12:54:43;99592.41;;;19.89;54.00
47154;BME280;32907;41.412;2.164;2022-12-08T12:59:43;99582.34;;;19.89;54.51
47154;BME280;32907;41.412;2.164;2022-12-08T13:05:05;99573.69;;;19.87;55.13
47154;BME280;32907;41.412;2.164;2022-12-08T13:07:42;99562.81;;;19.87;54.91
47154;BME280;32907;41.412;2.164;2022-12-08T13:10:29;99562.00;;;19.87;55.27
47154;BME280;32907;41.412;2.164;2022-12-08T13:15:38;99532.31;;;19.68;55.32
47154;BME280;32907;41.412;2.164;2022-12-08T13:18:14;99562.63;;;19.83;55.35
47154;BME280;32907;41.412;2.164;2022-12-08T13:21:12;99488.81;;;19.45;55.17
47154;BME280;32907;41.412;2.164;2022-12-08T13:26:12;99547.13;;;19.84;55.70
47154;BME280;32907;41.412;2.164;2022-12-08T13:34:39;99535.13;;;19.85;56.15
47154;BME280;32907;41.412;2.164;2022-12-08T13:39:51;99498.44;;;19.74;55.89
47154;BME280;32907;41.412;2.164;2022-12-08T13:42:32;99518.81;;;19.94;56.61
47154;BME280;32907;41.412;2.164;2022-12-08T13:53:55;99506.50;;;19.96;56.07
47154;BME280;32907;41.412;2.164;2022-12-08T13:56:46;99513.06;;;19.95;55.65
47154;BME280;32907;41.412;2.164;2022-12-08T13:59:35;99497.03;;;19.85;55.81
47154;BME280;32907;41.412;2.164;2022-12-08T14:02:34;99507.28;;;19.97;55.96
47154;BME280;32907;41.412;2.164;2022-12-08T14:05:02;99450.38;;;19.61;55.21
47154;BME280;32907;41.412;2.164;2022-12-08T14:07:54;99495.78;;;19.91;55.30
47154;BME280;32907;41.412;2.164;2022-12-08T14:10:28;99509.59;;;20.12;56.69
47154;BME280;32907;41.412;2.164;2022-12-08T14:13:01;99468.91;;;19.98;55.42
47154;BME280;32907;41.412;2.164;2022-12-08T14:15:33;99484.81;;;20.14;55.20
47154;BME280;32907;41.412;2.164;2022-12-08T14:18:20;99442.63;;;19.94;55.40
47154;BME280;32907;41.412;2.164;2022-12-08T14:21:11;99446.50;;;20.10;55.27
47154;BME280;32907;41.412;2.164;2022-12-08T14:23:47;99450.34;;;20.09;55.33
47154;BME280;32907;41.412;2.164;2022-12-08T14:26:14;99443.31;;;20.08;55.54
47154;BME280;32907;41.412;2.164;2022-12-08T14:28:42;99393.97;;;19.75;55.21
47154;BME280;32907;41.412;2.164;2022-12-08T14:31:11;99413.00;;;19.83;55.00
47154;BME280;32907;41.412;2.164;2022-12-08T14:33:41;99406.28;;;19.81;55.22
47154;BME280;32907;41.412;2.164;2022-12-08T14:36:09;99403.88;;;19.79;55.14
47154;BME280;32907;41.412;2.164;2022-12-08T14:38:38;99454.34;;;20.11;55.48
47154;BME280;32907;41.412;2.164;2022-12-08T14:41:08;99453.56;;;20.11;55.63
47154;BME280;32907;41.412;2.164;2022-12-08T14:43:36;99438.66;;;20.08;55.69
47154;BME280;32907;41.412;2.164;2022-12-08T14:46:21;99440.28;;;20.09;55.43
47154;BME280;32907;41.412;2.164;2022-12-08T14:48:49;99432.75;;;19.98;55.29
47154;BME280;32907;41.412;2.164;2022-12-08T14:53:59;99426.50;;;20.06;55.25
47154;BME280;32907;41.412;2.164;2022-12-08T14:56:36;99434.19;;;20.12;54.94
47154;BME280;32907;41.412;2.164;2022-12-08T14:59:32;99429.06;;;20.11;54.69
47154;BME280;32907;41.412;2.164;2022-12-08T15:02:22;99424.72;;;20.01;54.97
47154;BME280;32907;41.412;2.164;2022-12-08T15:04:57;99388.34;;;19.80;55.43